Taylor Fork

This weather station provides wind speed, gust or max wind speed, and wind direction at 9460 ft. near Pika Point above Sunlight Basin.  

This data can be used with temperature and precipitation data from the Carrot Basin SNOTEL site. If the data below is not displayed or up to date, view data here.

This weather station was purchased by the Friends of the Avalanche Center.

Elevation
9460ft
Jump to table bottom
Date Time Temperature
deg F
RH, % Wind Speed Wind Gust Wind Direction
12/05/19 22:00 16.9 93 8 14 SW - 213
12/05/19 21:00 17.0 94 10 17 SW - 204
12/05/19 20:00 17.4 94 7 14 SW - 215
12/05/19 19:00 18.2 94 7 12 SW - 225
12/05/19 18:00 18.5 95 10 16 S - 199
12/05/19 17:00 18.6 95 13 16 S - 173
12/05/19 16:00 19.8 91 9 12 SE - 156
12/05/19 15:00 22.5 83 10 13 S - 181
12/05/19 14:00 24.3 80 9 12 S - 163
12/05/19 13:00 24.7 74 7 10 S - 183
12/05/19 12:00 27.2 71 2 6 SW - 220
12/05/19 11:00 24.2 70 4 7 NW - 337
12/05/19 10:00 22.5 75 7 11 N - 338
12/05/19 09:00 22.5 69 3 10 NW - 309
12/05/19 08:00 18.5 81 3 5 SE - 139
12/05/19 07:00 20.1 77 4 6 E - 98
12/05/19 06:00 19.9 74 0 5 NE - 63
12/05/19 05:00 20.7 76 0 5 N - 17
12/05/19 04:00 21.3 73 2 5 N - 15
12/05/19 03:00 22.3 67 2 5 N - 4
12/05/19 02:00 20.1 72 4 6 W - 270
12/05/19 01:00 22.1 70 5 6 W - 277
12/05/19 00:00 22.3 75 5 7 W - 289
12/04/19 23:00 21.1 81 5 9 W - 292
12/04/19 22:00 19.8 91 9 10 SW - 247
12/04/19 21:00 18.2 93 9 11 S - 190
12/04/19 20:00 16.9 92 8 11 S - 192
12/04/19 19:00 16.3 92 8 10 S - 183
12/04/19 18:00 14.4 91 8 11 S - 190
12/04/19 17:00 15.6 92 12 16 S - 185
12/04/19 16:00 17.7 92 8 13 SE - 154
12/04/19 15:00 18.2 92 9 17 S - 199
12/04/19 14:00 18.8 92 14 20 S - 190
12/04/19 13:00 18.5 92 14 23 S - 187
12/04/19 12:00 18.4 92 11 19 S - 191
12/04/19 11:00 17.7 92 11 16 S - 194
12/04/19 10:00 16.7 92 11 16 S - 192
12/04/19 09:00 16.1 92 11 16 S - 197
12/04/19 08:00 15.3 92 12 17 S - 187
12/04/19 07:00 15.0 91 14 19 S - 175
12/04/19 06:00 15.1 91 15 23 S - 163
12/04/19 05:00 14.9 91 12 21 S - 159
12/04/19 04:00 13.1 91 11 14 SW - 206
12/04/19 03:00 18.9 92 9 14 SW - 205
12/04/19 02:00 15.3 91 9 13 S - 187
12/04/19 01:00 14.8 91 13 19 S - 174
12/04/19 00:00 15.3 91 13 19 S - 160
12/03/19 23:00 15.2 91 16 23 S - 159
12/03/19 22:00 14.8 91 11 21 S - 159
12/03/19 21:00 13.8 91 11 15 S - 177